Star Princess — ZCDD6 — position and weather

sailwx.info

Track history (hours):
 
Tides and Currents Weather Stations Pressure Air Temp Water Temp Dewpoint Dewpoint Depression Visibility Wind Speed Wind Dir Waves Ship Positions

Star Princess

Operator: Princess Cruises

Last reported at 2017-Apr-24 15:00 UTC. Time now 2017-Apr-25 02:52 UTC.
Position N 36°12' W 139°06'.

Length 289.6 m; beam 36 m; draft 8.4 m.

Type: Ship. MMSI: 310361000.

Wind from 240 at 21 knots

Barometer 1021.8 mb
Air temperature 14.0 ° C
Visibility: greater than 10.8 NM
Dewpoint 12.2 ° C
Water temperature 14.0 ° C

Date/timePositionNaut miles runAvg speedWind from/ knotsBaromVisibWave heightAir tempDewpointWater temp
2017-Apr-24 15:00N 36°12' W 139°06'23618.1 240 / 211021.810.8 14.012.214.0
2017-Apr-24 02:00N 39°12' W 135°54'20818.9 240 / 371016.5 5.4 10.0 6.810.0
2017-Apr-23 15:00N 41°48' W 132°54'29318.3 220 / 281014.9 5.4 10.0 6.810.0
2017-Apr-22 23:00N 45°30' W 128°30'13516.8 210 / 271011.110.8 11.0 9.0
2017-Apr-22 14:58N 47°17' W 126°32'716.3
2017-Apr-22 14:30N 47°23' W 126°25'1121.8
2017-Apr-22 14:00N 47°30' W 126°12'1914.6 170 / 241003.910.8 12.0 9.010.0
2017-Apr-22 12:41N 47°46' W 125°56'416.7
2017-Apr-22 12:26N 47°49' W 125°52'817.1
2017-Apr-22 12:00N 47°55' W 125°45'917.6
2017-Apr-22 11:30N 48°01' W 125°36'917.9
2017-Apr-22 11:00N 48°08' W 125°28'918.0
2017-Apr-22 10:30N 48°15' W 125°19'917.9
2017-Apr-22 10:00N 48°22' W 125°11'918.0
2017-Apr-22 09:30N 48°29' W 125°03'918.2
2017-Apr-22 09:00N 48°31' W 124°49'917.1
2017-Apr-22 08:30N 48°29' W 124°37'817.0
2017-Apr-22 08:00N 48°26' W 124°25'917.3
2017-Apr-22 07:30N 48°22' W 124°13'817.1
2017-Apr-22 07:01N 48°19' W 124°01'917.2
2017-Apr-22 06:30N 48°17' W 123°49'816.9
2017-Apr-22 06:00N 48°16' W 123°36'714.3
2017-Apr-22 05:31N 48°19' W 123°27'611.4
2017-Apr-22 05:00N 48°23' W 123°20'612.4
2017-Apr-22 04:30N 48°26' W 123°12'917.6
2017-Apr-22 04:01N 48°35' W 123°13'815.5
2017-Apr-22 03:30N 48°43' W 123°14'816.4
2017-Apr-22 03:00N 48°46' W 123°03'612.6
2017-Apr-22 02:30N 48°52' W 123°06'918.5
2017-Apr-22 02:00N 48°58' W 123°17'917.9
2017-Apr-22 01:30N 49°06' W 123°24'918.5
2017-Apr-22 01:00N 49°15' W 123°22'816.2
2017-Apr-22 00:30N 49°19' W 123°11'4 7.5
2017-Apr-22 00:00N 49°17' W 123°06'0 0.0
2017-Apr-21 23:28N 49°17' W 123°06'0 0.0
2017-Apr-21 22:58N 49°17' W 123°06'0 0.0
2017-Apr-21 22:30N 49°17' W 123°06'0 0.0
2017-Apr-21 22:00N 49°17' W 123°06'0 0.0
2017-Apr-21 21:30N 49°17' W 123°06'0 0.0
2017-Apr-21 21:00N 49°17' W 123°06'0 0.0
2017-Apr-21 20:29N 49°17' W 123°06'0 0.0
2017-Apr-21 19:59N 49°17' W 123°06'0 0.0
2017-Apr-21 19:29N 49°17' W 123°06'0 0.0
2017-Apr-21 18:59N 49°17' W 123°06'0 0.0
2017-Apr-21 18:29N 49°17' W 123°06'0 0.0
2017-Apr-21 17:58N 49°17' W 123°06'0 0.0
2017-Apr-21 17:28N 49°17' W 123°06'0 0.0
2017-Apr-21 16:58N 49°17' W 123°06'0 0.0
2017-Apr-21 16:28N 49°17' W 123°06'0 0.0
2017-Apr-21 16:01N 49°17' W 123°06'0 0.0
2017-Apr-21 15:30N 49°17' W 123°06'0 0.0
2017-Apr-21 15:00N 49°17' W 123°06'0 0.0
2017-Apr-21 14:31N 49°17' W 123°06'2 1.5
2017-Apr-21 13:30N 49°19' W 123°08'4 8.2
2017-Apr-21 13:00N 49°19' W 123°14'510.4
2017-Apr-21 12:30N 49°15' W 123°19'612.0
2017-Apr-21 12:00N 49°09' W 123°20'612.2
2017-Apr-21 11:30N 49°03' W 123°19'613.0
2017-Apr-21 11:01N 48°58' W 123°11'612.9
2017-Apr-21 10:31N 48°54' W 123°04'612.5
2017-Apr-21 10:01N 48°48' W 122°60'612.6
2017-Apr-21 09:31N 48°44' W 123°07'612.5
2017-Apr-21 09:00N 48°41' W 123°15'714.1
2017-Apr-21 08:30N 48°34' W 123°13'612.6
2017-Apr-21 08:00N 48°28' W 123°10'612.1
2017-Apr-21 07:31N 48°23' W 123°15'612.2
2017-Apr-21 07:00N 48°21' W 123°23'612.8
2017-Apr-21 06:30N 48°15' W 123°27'712.5
2017-Apr-21 05:59N 48°13' W 123°36'612.7
2017-Apr-21 05:30N 48°13' W 123°46'612.9
2017-Apr-21 05:00N 48°14' W 123°55'612.9
2017-Apr-21 04:30N 48°16' W 124°04'613.0
2017-Apr-21 04:00N 48°19' W 124°13'713.2
2017-Apr-21 03:30N 48°22' W 124°22'612.9
2017-Apr-21 03:00N 48°24' W 124°31'713.3
2017-Apr-21 02:30N 48°27' W 124°40'612.7
2017-Apr-21 02:00N 48°29' W 124°49'613.0
2017-Apr-21 01:31N 48°28' W 124°59'712.6
2017-Apr-21 00:59N 48°23' W 125°04'613.1
2017-Apr-21 00:30N 48°17' W 125°08'713.1
2017-Apr-20 23:59N 48°11' W 125°11'713.0
2017-Apr-20 23:26N 48°04' W 125°14'713.2
2017-Apr-20 22:52N 47°57' W 125°18'4912.8
2017-Apr-20 19:00N 47°08' W 125°16'815.3
2017-Apr-20 18:30N 46°60' W 125°15'816.0
2017-Apr-20 18:00N 46°52' W 125°14'713.4
2017-Apr-20 17:30N 46°45' W 125°14'1613.6
2017-Apr-20 16:20N 46°29' W 125°13'513.5
2017-Apr-20 16:00N 46°25' W 125°13'713.5
2017-Apr-20 15:30N 46°18' W 125°13'713.4
2017-Apr-20 15:00N 46°11' W 125°12'1313.3
2017-Apr-20 14:00N 45°58' W 125°11'713.3
2017-Apr-20 13:30N 45°51' W 125°11'713.9
2017-Apr-20 13:00N 45°44' W 125°10'713.7
2017-Apr-20 12:30N 45°38' W 125°10'713.5
2017-Apr-20 12:00N 45°31' W 125°09'713.6
2017-Apr-20 11:30N 45°24' W 125°09'713.4
2017-Apr-20 11:00N 45°17' W 125°08'713.6
2017-Apr-20 10:30N 45°11' W 125°08'2813.5
2017-Apr-20 08:25N 44°42' W 125°06'613.6
2017-Apr-20 08:00N 44°37' W 125°05'1013.6
2017-Apr-20 07:17N 44°27' W 125°05'414.2
2017-Apr-20 07:00N 44°23' W 125°04'33514.2
2017-Apr-19 07:26N 38°52' W 123°58'715.9
2017-Apr-19 07:00N 38°46' W 123°53'815.7
2017-Apr-19 06:30N 38°40' W 123°47'816.1
2017-Apr-19 06:00N 38°33' W 123°41'815.9
2017-Apr-19 05:30N 38°27' W 123°35'815.9
2017-Apr-19 05:00N 38°20' W 123°30'815.7
2017-Apr-19 04:30N 38°14' W 123°24'815.8
2017-Apr-19 04:00N 38°07' W 123°18'815.9
2017-Apr-19 03:30N 38°01' W 123°12'816.1
2017-Apr-19 03:00N 37°56' W 123°03'816.1
2017-Apr-19 02:30N 37°52' W 122°55'815.6
2017-Apr-19 02:00N 37°48' W 122°46'611.7
2017-Apr-19 01:30N 37°46' W 122°40'714.2
2017-Apr-19 01:00N 37°48' W 122°31'611.0
2017-Apr-19 00:30N 37°49' W 122°24'1 1.0
2017-Apr-18 23:59N 37°48' W 122°24'0 0.0
2017-Apr-18 23:28N 37°48' W 122°24'0 0.0
2017-Apr-18 22:58N 37°48' W 122°24'0 0.0
2017-Apr-18 22:28N 37°48' W 122°24'0 0.0
2017-Apr-18 21:58N 37°48' W 122°24'0 0.0
2017-Apr-18 21:31N 37°48' W 122°24'0 0.0
2017-Apr-18 21:00N 37°48' W 122°24'0 0.0
2017-Apr-18 20:30N 37°48' W 122°24'0 0.0
2017-Apr-18 20:00N 37°48' W 122°24'0 0.0
2017-Apr-18 19:30N 37°48' W 122°24'0 0.0
2017-Apr-18 18:59N 37°48' W 122°24'0 0.0
2017-Apr-18 18:29N 37°48' W 122°24'0 0.0
2017-Apr-18 17:59N 37°48' W 122°24'0 0.0
2017-Apr-18 17:29N 37°48' W 122°24'0 0.0
2017-Apr-18 16:59N 37°48' W 122°24'0 0.0
2017-Apr-18 16:28N 37°48' W 122°24'0 0.0
2017-Apr-18 15:58N 37°48' W 122°24'0 0.0
2017-Apr-18 15:28N 37°48' W 122°24'0 0.0
2017-Apr-18 14:58N 37°48' W 122°24'0 0.0
2017-Apr-18 14:00N 37°48' W 122°24'0 0.0
2017-Apr-18 13:30N 37°48' W 122°24'0 0.0
2017-Apr-18 13:00N 37°48' W 122°24'0 0.0
2017-Apr-18 12:30N 37°48' W 122°24'0 0.0
2017-Apr-18 11:59N 37°48' W 122°24'0 0.0
2017-Apr-18 11:29N 37°48' W 122°24'0 0.0
2017-Apr-18 10:59N 37°48' W 122°24'0 0.0
2017-Apr-18 10:29N 37°48' W 122°24'0 0.0
2017-Apr-18 09:59N 37°48' W 122°24'0 0.0
2017-Apr-18 09:28N 37°48' W 122°24'0 0.0
2017-Apr-18 08:58N 37°48' W 122°24'0 0.0
2017-Apr-18 08:28N 37°48' W 122°24'0 0.0
2017-Apr-18 07:58N 37°48' W 122°24'0 0.0
2017-Apr-18 07:31N 37°48' W 122°24'0 0.0
2017-Apr-18 07:00N 37°48' W 122°24'0 0.0
2017-Apr-18 06:30N 37°48' W 122°24'0 0.0
2017-Apr-18 06:00N 37°48' W 122°24'0 0.0
2017-Apr-18 05:30N 37°48' W 122°24'0 0.0
2017-Apr-18 04:59N 37°48' W 122°24'0 0.0
2017-Apr-18 04:29N 37°48' W 122°24'0 0.0
2017-Apr-18 03:59N 37°48' W 122°24'0 0.0
2017-Apr-18 03:29N 37°48' W 122°24'0 0.0
2017-Apr-18 02:59N 37°48' W 122°24'0 0.0
2017-Apr-18 02:28N 37°48' W 122°24'0 0.0
2017-Apr-18 01:58N 37°48' W 122°24'0 0.0
2017-Apr-18 01:28N 37°48' W 122°24'0 0.0
2017-Apr-18 00:58N 37°48' W 122°24'0 0.0
2017-Apr-18 00:30N 37°48' W 122°24'0 0.0
2017-Apr-18 00:00N 37°48' W 122°24'0 0.0
2017-Apr-17 23:30N 37°48' W 122°24'0 0.0
2017-Apr-17 22:57N 37°48' W 122°24'0 0.0
2017-Apr-17 22:30N 37°48' W 122°24'0 0.0
2017-Apr-17 21:59N 37°48' W 122°24'0 0.0
2017-Apr-17 21:29N 37°48' W 122°24'0 0.0
2017-Apr-17 20:59N 37°48' W 122°24'0 0.0
2017-Apr-17 20:30N 37°48' W 122°24'0 0.7
2017-Apr-17 20:00N 37°49' W 122°24'3 6.6
2017-Apr-17 19:30N 37°49' W 122°28'612.2
2017-Apr-17 19:00N 37°47' W 122°35'510.9
2017-Apr-17 18:30N 37°44' W 122°41'612.1
2017-Apr-17 18:00N 37°38' W 122°40'815.7
2017-Apr-17 17:30N 37°30' W 122°40'816.0
2017-Apr-17 17:00N 37°22' W 122°40'816.0
2017-Apr-17 16:30N 37°14' W 122°42'816.0
2017-Apr-17 16:00N 37°07' W 122°47'815.9
2017-Apr-17 15:30N 36°60' W 122°51'816.0
2017-Apr-17 15:00N 36°52' W 122°50'815.9
2017-Apr-17 14:30N 36°44' W 122°50'1615.8
2017-Apr-17 13:30N 36°28' W 122°45'816.4
2017-Apr-17 13:00N 36°21' W 122°41'816.4
2017-Apr-17 12:30N 36°14' W 122°35'816.2
2017-Apr-17 12:00N 36°08' W 122°29'191337.6
2017-Apr-17 12:00N 36°24' W 122°42'2756.0 120 / 181014.9 0.5 13.8 9.314.0
2017-Apr-17 11:30N 36°01' W 122°23'816.2
2017-Apr-17 11:00N 35°55' W 122°17'816.2
2017-Apr-17 10:30N 35°49' W 122°11'816.4
2017-Apr-17 10:00N 35°42' W 122°05'175.4
2017-Apr-17 10:00N 35°42' W 122°06'918.0 120 / 181014.9 0.5 13.8 9.314.0
2017-Apr-17 09:30N 35°36' W 121°58'816.9
2017-Apr-17 09:00N 35°29' W 121°52'918.2
2017-Apr-17 08:30N 35°22' W 121°45'1219.6
2017-Apr-17 07:52N 35°12' W 121°36'719.5
2017-Apr-17 07:30N 35°07' W 121°31'1019.0
2017-Apr-17 07:00N 34°59' W 121°23'1019.2
2017-Apr-17 06:30N 34°51' W 121°16'918.7
2017-Apr-17 06:00N 34°44' W 121°09'918.6
2017-Apr-17 05:30N 34°37' W 121°02'1019.0
2017-Apr-17 04:59N 34°29' W 120°55'918.5
2017-Apr-17 04:30N 34°25' W 120°45'919.0
2017-Apr-17 04:00N 34°22' W 120°34'1019.2
2017-Apr-17 03:28N 34°20' W 120°22'919.0
2017-Apr-17 03:00N 34°20' W 120°12'1019.1
2017-Apr-17 02:31N 34°21' W 120°00'918.9
2017-Apr-17 02:00N 34°22' W 119°49'713.6
2017-Apr-17 01:30N 34°24' W 119°41'0 0.4
2017-Apr-17 00:57N 34°24' W 119°41'0 0.2
2017-Apr-17 00:21N 34°24' W 119°41'0 0.0
2017-Apr-16 23:57N 34°24' W 119°41'0 0.1
2017-Apr-16 23:29N 34°24' W 119°41'0 0.0
2017-Apr-16 22:59N 34°24' W 119°41'0 0.1
2017-Apr-16 22:29N 34°24' W 119°41'0 0.0
2017-Apr-16 21:59N 34°24' W 119°41'0 0.0
2017-Apr-16 21:28N 34°24' W 119°41'0 0.0
2017-Apr-16 20:58N 34°24' W 119°41'0 0.0
2017-Apr-16 20:28N 34°24' W 119°41'0 0.0
2017-Apr-16 19:55N 34°24' W 119°41'0 0.0
2017-Apr-16 19:28N 34°24' W 119°41'0 0.0
2017-Apr-16 19:01N 34°24' W 119°41'0 0.1
2017-Apr-16 18:30N 34°24' W 119°41'0 0.1
2017-Apr-16 17:57N 34°24' W 119°41'0 0.0
2017-Apr-16 17:03N 34°24' W 119°41'0 0.0
2017-Apr-16 16:41N 34°24' W 119°41'0 0.0
2017-Apr-16 16:23N 34°24' W 119°41'0 0.0
2017-Apr-16 15:56N 34°24' W 119°41'0 0.0
2017-Apr-16 15:29N 34°24' W 119°41'0 0.1
2017-Apr-16 14:50N 34°24' W 119°41'0 0.0
2017-Apr-16 13:49N 34°24' W 119°41'0 0.1
2017-Apr-16 12:55N 34°24' W 119°41'2 4.5
2017-Apr-16 12:30N 34°22' W 119°41'510.9
2017-Apr-16 12:00N 34°17' W 119°37'611.1
2017-Apr-16 11:30N 34°13' W 119°33'611.2
2017-Apr-16 11:00N 34°09' W 119°28'510.8
2017-Apr-16 10:30N 34°06' W 119°23'510.9
2017-Apr-16 10:00N 34°05' W 119°16'611.2
2017-Apr-16 09:30N 34°02' W 119°10'5 9.4
2017-Apr-16 09:00N 33°58' W 119°09'611.0
2017-Apr-16 08:30N 33°53' W 119°13'611.2
2017-Apr-16 08:00N 33°49' W 119°17'5 9.3
2017-Apr-16 07:30N 33°44' W 119°17'510.6
2017-Apr-16 07:00N 33°43' W 119°11'611.1
2017-Apr-16 06:30N 33°42' W 119°04'611.1
2017-Apr-16 06:00N 33°41' W 118°58'611.2
2017-Apr-16 05:30N 33°39' W 118°51'611.2
2017-Apr-16 05:00N 33°34' W 118°48'611.1
2017-Apr-16 04:30N 33°29' W 118°44'511.0
2017-Apr-16 04:00N 33°24' W 118°41'611.2
2017-Apr-16 03:30N 33°20' W 118°37'510.6
2017-Apr-16 03:00N 33°15' W 118°34'611.0
2017-Apr-16 02:30N 33°14' W 118°27'511.0
2017-Apr-16 02:00N 33°13' W 118°21'5 9.5
2017-Apr-16 01:30N 33°16' W 118°16'5 9.8
2017-Apr-16 01:00N 33°21' W 118°18'1 1.1
2017-Apr-16 00:28N 33°21' W 118°19'0 0.1
2017-Apr-15 23:55N 33°21' W 118°19'0 0.1
2017-Apr-15 23:28N 33°21' W 118°19'0 0.0
2017-Apr-15 22:58N 33°21' W 118°19'0 0.0
2017-Apr-15 22:30N 33°21' W 118°19'0 0.0
2017-Apr-15 22:00N 33°21' W 118°19'0 0.1
2017-Apr-15 21:30N 33°21' W 118°19'0 0.1
2017-Apr-15 21:00N 33°21' W 118°19'0 0.0
2017-Apr-15 20:30N 33°21' W 118°19'0 0.0
2017-Apr-15 19:59N 33°21' W 118°19'0 0.0
2017-Apr-15 19:29N 33°21' W 118°19'0 0.1
2017-Apr-15 18:59N 33°21' W 118°19'0 0.0
2017-Apr-15 18:29N 33°21' W 118°19'0 0.0
2017-Apr-15 17:58N 33°21' W 118°19'0 0.0
2017-Apr-15 17:28N 33°21' W 118°19'0 0.1
2017-Apr-15 16:58N 33°21' W 118°19'0 0.1
2017-Apr-15 16:25N 33°21' W 118°19'0 0.0
2017-Apr-15 15:55N 33°21' W 118°19'0 0.0
2017-Apr-15 15:30N 33°21' W 118°19'0 0.0
2017-Apr-15 15:00N 33°21' W 118°19'0 0.0
2017-Apr-15 13:57N 33°21' W 118°19'0 0.1
2017-Apr-15 13:31N 33°21' W 118°19'4 8.2
2017-Apr-15 13:01N 33°21' W 118°14'510.4
2017-Apr-15 12:31N 33°16' W 118°11'510.1
2017-Apr-15 12:01N 33°11' W 118°09'5 9.9
2017-Apr-15 11:30N 33°06' W 118°08'5 9.1
2017-Apr-15 11:00N 33°03' W 118°05'5 9.7
2017-Apr-15 10:31N 33°04' W 117°60'611.3
2017-Apr-15 10:01N 33°10' W 118°01'611.6
2017-Apr-15 09:30N 33°15' W 118°04'611.5
2017-Apr-15 09:00N 33°20' W 118°07'611.4
2017-Apr-15 08:31N 33°26' W 118°09'611.4
2017-Apr-15 08:00N 33°31' W 118°12'611.7
2017-Apr-15 07:31N 33°37' W 118°14'510.1
2017-Apr-15 07:01N 33°42' W 118°15'3 6.3
2017-Apr-15 06:30N 33°45' W 118°17'0 0.7
2017-Apr-15 06:00N 33°45' W 118°17'0 0.0
2017-Apr-15 05:30N 33°45' W 118°17'0 0.0
2017-Apr-15 05:00N 33°45' W 118°17'0 0.0
2017-Apr-15 04:30N 33°45' W 118°17'0 0.0
2017-Apr-15 03:59N 33°45' W 118°17'0 0.0
2017-Apr-15 03:29N 33°45' W 118°17'0 0.0
2017-Apr-15 02:59N 33°45' W 118°17'0 0.0
2017-Apr-15 02:29N 33°45' W 118°17'0 0.0
2017-Apr-15 01:59N 33°45' W 118°17'0 0.0
2017-Apr-15 01:28N 33°45' W 118°17'0 0.0
2017-Apr-15 00:58N 33°45' W 118°17'0 0.0
2017-Apr-15 00:28N 33°45' W 118°17'0 0.0
2017-Apr-14 23:43N 33°45' W 118°17'0 0.0
2017-Apr-14 22:42N 33°45' W 118°17'0 0.0
2017-Apr-14 22:30N 33°45' W 118°17'  
Track history (hours):
 
Tides and Currents Weather Stations Pressure Air Temp Water Temp Dewpoint Dewpoint Depression Visibility Wind Speed Wind Dir Waves Ship Positions

Star Princess

Operator: Princess Cruises

Last reported at 2017-Apr-24 15:00 UTC. Time now 2017-Apr-25 02:52 UTC.
Position N 36°12' W 139°06'.

Length 289.6 m; beam 36 m; draft 8.4 m.

Type: Ship. MMSI: 310361000.

Wind from 240 at 21 knots

Barometer 1021.8 mb
Air temperature 14.0 ° C
Visibility: greater than 10.8 NM
Dewpoint 12.2 ° C
Water temperature 14.0 ° C

Date/timePositionNaut miles runAvg speedWind from/ knotsBaromVisibWave heightAir tempDewpointWater temp
2017-Apr-24 15:00N 36°12' W 139°06'23618.1 240 / 211021.810.8 14.012.214.0
2017-Apr-24 02:00N 39°12' W 135°54'20818.9 240 / 371016.5 5.4 10.0 6.810.0
2017-Apr-23 15:00N 41°48' W 132°54'29318.3 220 / 281014.9 5.4 10.0 6.810.0
2017-Apr-22 23:00N 45°30' W 128°30'13516.8 210 / 271011.110.8 11.0 9.0
2017-Apr-22 14:58N 47°17' W 126°32'716.3
2017-Apr-22 14:30N 47°23' W 126°25'1121.8
2017-Apr-22 14:00N 47°30' W 126°12'1914.6 170 / 241003.910.8 12.0 9.010.0
2017-Apr-22 12:41N 47°46' W 125°56'416.7
2017-Apr-22 12:26N 47°49' W 125°52'817.1
2017-Apr-22 12:00N 47°55' W 125°45'917.6
2017-Apr-22 11:30N 48°01' W 125°36'917.9
2017-Apr-22 11:00N 48°08' W 125°28'918.0
2017-Apr-22 10:30N 48°15' W 125°19'917.9
2017-Apr-22 10:00N 48°22' W 125°11'918.0
2017-Apr-22 09:30N 48°29' W 125°03'918.2
2017-Apr-22 09:00N 48°31' W 124°49'917.1
2017-Apr-22 08:30N 48°29' W 124°37'817.0
2017-Apr-22 08:00N 48°26' W 124°25'917.3
2017-Apr-22 07:30N 48°22' W 124°13'817.1
2017-Apr-22 07:01N 48°19' W 124°01'917.2
2017-Apr-22 06:30N 48°17' W 123°49'816.9
2017-Apr-22 06:00N 48°16' W 123°36'714.3
2017-Apr-22 05:31N 48°19' W 123°27'611.4
2017-Apr-22 05:00N 48°23' W 123°20'612.4
2017-Apr-22 04:30N 48°26' W 123°12'917.6
2017-Apr-22 04:01N 48°35' W 123°13'815.5
2017-Apr-22 03:30N 48°43' W 123°14'816.4
2017-Apr-22 03:00N 48°46' W 123°03'612.6
2017-Apr-22 02:30N 48°52' W 123°06'918.5
2017-Apr-22 02:00N 48°58' W 123°17'917.9
2017-Apr-22 01:30N 49°06' W 123°24'918.5
2017-Apr-22 01:00N 49°15' W 123°22'816.2
2017-Apr-22 00:30N 49°19' W 123°11'4 7.5
2017-Apr-22 00:00N 49°17' W 123°06'0 0.0
2017-Apr-21 23:28N 49°17' W 123°06'0 0.0
2017-Apr-21 22:58N 49°17' W 123°06'0 0.0
2017-Apr-21 22:30N 49°17' W 123°06'0 0.0
2017-Apr-21 22:00N 49°17' W 123°06'0 0.0
2017-Apr-21 21:30N 49°17' W 123°06'0 0.0
2017-Apr-21 21:00N 49°17' W 123°06'0 0.0
2017-Apr-21 20:29N 49°17' W 123°06'0 0.0
2017-Apr-21 19:59N 49°17' W 123°06'0 0.0
2017-Apr-21 19:29N 49°17' W 123°06'0 0.0
2017-Apr-21 18:59N 49°17' W 123°06'0 0.0
2017-Apr-21 18:29N 49°17' W 123°06'0 0.0
2017-Apr-21 17:58N 49°17' W 123°06'0 0.0
2017-Apr-21 17:28N 49°17' W 123°06'0 0.0
2017-Apr-21 16:58N 49°17' W 123°06'0 0.0
2017-Apr-21 16:28N 49°17' W 123°06'0 0.0
2017-Apr-21 16:01N 49°17' W 123°06'0 0.0
2017-Apr-21 15:30N 49°17' W 123°06'0 0.0
2017-Apr-21 15:00N 49°17' W 123°06'0 0.0
2017-Apr-21 14:31N 49°17' W 123°06'2 1.5
2017-Apr-21 13:30N 49°19' W 123°08'4 8.2
2017-Apr-21 13:00N 49°19' W 123°14'510.4
2017-Apr-21 12:30N 49°15' W 123°19'612.0
2017-Apr-21 12:00N 49°09' W 123°20'612.2
2017-Apr-21 11:30N 49°03' W 123°19'613.0
2017-Apr-21 11:01N 48°58' W 123°11'612.9
2017-Apr-21 10:31N 48°54' W 123°04'612.5
2017-Apr-21 10:01N 48°48' W 122°60'612.6
2017-Apr-21 09:31N 48°44' W 123°07'612.5
2017-Apr-21 09:00N 48°41' W 123°15'714.1
2017-Apr-21 08:30N 48°34' W 123°13'612.6
2017-Apr-21 08:00N 48°28' W 123°10'612.1
2017-Apr-21 07:31N 48°23' W 123°15'612.2
2017-Apr-21 07:00N 48°21' W 123°23'612.8
2017-Apr-21 06:30N 48°15' W 123°27'712.5
2017-Apr-21 05:59N 48°13' W 123°36'612.7
2017-Apr-21 05:30N 48°13' W 123°46'612.9
2017-Apr-21 05:00N 48°14' W 123°55'612.9
2017-Apr-21 04:30N 48°16' W 124°04'613.0
2017-Apr-21 04:00N 48°19' W 124°13'713.2
2017-Apr-21 03:30N 48°22' W 124°22'612.9
2017-Apr-21 03:00N 48°24' W 124°31'713.3
2017-Apr-21 02:30N 48°27' W 124°40'612.7
2017-Apr-21 02:00N 48°29' W 124°49'613.0
2017-Apr-21 01:31N 48°28' W 124°59'712.6
2017-Apr-21 00:59N 48°23' W 125°04'613.1
2017-Apr-21 00:30N 48°17' W 125°08'713.1
2017-Apr-20 23:59N 48°11' W 125°11'713.0
2017-Apr-20 23:26N 48°04' W 125°14'713.2
2017-Apr-20 22:52N 47°57' W 125°18'4912.8
2017-Apr-20 19:00N 47°08' W 125°16'815.3
2017-Apr-20 18:30N 46°60' W 125°15'816.0
2017-Apr-20 18:00N 46°52' W 125°14'713.4
2017-Apr-20 17:30N 46°45' W 125°14'1613.6
2017-Apr-20 16:20N 46°29' W 125°13'513.5
2017-Apr-20 16:00N 46°25' W 125°13'713.5
2017-Apr-20 15:30N 46°18' W 125°13'713.4
2017-Apr-20 15:00N 46°11' W 125°12'1313.3
2017-Apr-20 14:00N 45°58' W 125°11'713.3
2017-Apr-20 13:30N 45°51' W 125°11'713.9
2017-Apr-20 13:00N 45°44' W 125°10'713.7
2017-Apr-20 12:30N 45°38' W 125°10'713.5
2017-Apr-20 12:00N 45°31' W 125°09'713.6
2017-Apr-20 11:30N 45°24' W 125°09'713.4
2017-Apr-20 11:00N 45°17' W 125°08'713.6
2017-Apr-20 10:30N 45°11' W 125°08'2813.5
2017-Apr-20 08:25N 44°42' W 125°06'613.6
2017-Apr-20 08:00N 44°37' W 125°05'1013.6
2017-Apr-20 07:17N 44°27' W 125°05'414.2
2017-Apr-20 07:00N 44°23' W 125°04'33514.2
2017-Apr-19 07:26N 38°52' W 123°58'715.9
2017-Apr-19 07:00N 38°46' W 123°53'815.7
2017-Apr-19 06:30N 38°40' W 123°47'816.1
2017-Apr-19 06:00N 38°33' W 123°41'815.9
2017-Apr-19 05:30N 38°27' W 123°35'815.9
2017-Apr-19 05:00N 38°20' W 123°30'815.7
2017-Apr-19 04:30N 38°14' W 123°24'815.8
2017-Apr-19 04:00N 38°07' W 123°18'815.9
2017-Apr-19 03:30N 38°01' W 123°12'816.1
2017-Apr-19 03:00N 37°56' W 123°03'816.1
2017-Apr-19 02:30N 37°52' W 122°55'815.6
2017-Apr-19 02:00N 37°48' W 122°46'611.7
2017-Apr-19 01:30N 37°46' W 122°40'714.2
2017-Apr-19 01:00N 37°48' W 122°31'611.0
2017-Apr-19 00:30N 37°49' W 122°24'1 1.0
2017-Apr-18 23:59N 37°48' W 122°24'0 0.0
2017-Apr-18 23:28N 37°48' W 122°24'0 0.0
2017-Apr-18 22:58N 37°48' W 122°24'0 0.0
2017-Apr-18 22:28N 37°48' W 122°24'0 0.0
2017-Apr-18 21:58N 37°48' W 122°24'0 0.0
2017-Apr-18 21:31N 37°48' W 122°24'0 0.0
2017-Apr-18 21:00N 37°48' W 122°24'0 0.0
2017-Apr-18 20:30N 37°48' W 122°24'0 0.0
2017-Apr-18 20:00N 37°48' W 122°24'0 0.0
2017-Apr-18 19:30N 37°48' W 122°24'0 0.0
2017-Apr-18 18:59N 37°48' W 122°24'0 0.0
2017-Apr-18 18:29N 37°48' W 122°24'0 0.0
2017-Apr-18 17:59N 37°48' W 122°24'0 0.0
2017-Apr-18 17:29N 37°48' W 122°24'0 0.0
2017-Apr-18 16:59N 37°48' W 122°24'0 0.0
2017-Apr-18 16:28N 37°48' W 122°24'0 0.0
2017-Apr-18 15:58N 37°48' W 122°24'0 0.0
2017-Apr-18 15:28N 37°48' W 122°24'0 0.0
2017-Apr-18 14:58N 37°48' W 122°24'0 0.0
2017-Apr-18 14:00N 37°48' W 122°24'0 0.0
2017-Apr-18 13:30N 37°48' W 122°24'0 0.0
2017-Apr-18 13:00N 37°48' W 122°24'0 0.0
2017-Apr-18 12:30N 37°48' W 122°24'0 0.0
2017-Apr-18 11:59N 37°48' W 122°24'0 0.0
2017-Apr-18 11:29N 37°48' W 122°24'0 0.0
2017-Apr-18 10:59N 37°48' W 122°24'0 0.0
2017-Apr-18 10:29N 37°48' W 122°24'0 0.0
2017-Apr-18 09:59N 37°48' W 122°24'0 0.0
2017-Apr-18 09:28N 37°48' W 122°24'0 0.0
2017-Apr-18 08:58N 37°48' W 122°24'0 0.0
2017-Apr-18 08:28N 37°48' W 122°24'0 0.0
2017-Apr-18 07:58N 37°48' W 122°24'0 0.0
2017-Apr-18 07:31N 37°48' W 122°24'0 0.0
2017-Apr-18 07:00N 37°48' W 122°24'0 0.0
2017-Apr-18 06:30N 37°48' W 122°24'0 0.0
2017-Apr-18 06:00N 37°48' W 122°24'0 0.0
2017-Apr-18 05:30N 37°48' W 122°24'0 0.0
2017-Apr-18 04:59N 37°48' W 122°24'0 0.0
2017-Apr-18 04:29N 37°48' W 122°24'0 0.0
2017-Apr-18 03:59N 37°48' W 122°24'0 0.0
2017-Apr-18 03:29N 37°48' W 122°24'0 0.0
2017-Apr-18 02:59N 37°48' W 122°24'0 0.0
2017-Apr-18 02:28N 37°48' W 122°24'0 0.0
2017-Apr-18 01:58N 37°48' W 122°24'0 0.0
2017-Apr-18 01:28N 37°48' W 122°24'0 0.0
2017-Apr-18 00:58N 37°48' W 122°24'0 0.0
2017-Apr-18 00:30N 37°48' W 122°24'0 0.0
2017-Apr-18 00:00N 37°48' W 122°24'0 0.0
2017-Apr-17 23:30N 37°48' W 122°24'0 0.0
2017-Apr-17 22:57N 37°48' W 122°24'0 0.0
2017-Apr-17 22:30N 37°48' W 122°24'0 0.0
2017-Apr-17 21:59N 37°48' W 122°24'0 0.0
2017-Apr-17 21:29N 37°48' W 122°24'0 0.0
2017-Apr-17 20:59N 37°48' W 122°24'0 0.0
2017-Apr-17 20:30N 37°48' W 122°24'0 0.7
2017-Apr-17 20:00N 37°49' W 122°24'3 6.6
2017-Apr-17 19:30N 37°49' W 122°28'612.2
2017-Apr-17 19:00N 37°47' W 122°35'510.9
2017-Apr-17 18:30N 37°44' W 122°41'612.1
2017-Apr-17 18:00N 37°38' W 122°40'815.7
2017-Apr-17 17:30N 37°30' W 122°40'816.0
2017-Apr-17 17:00N 37°22' W 122°40'816.0
2017-Apr-17 16:30N 37°14' W 122°42'816.0
2017-Apr-17 16:00N 37°07' W 122°47'815.9
2017-Apr-17 15:30N 36°60' W 122°51'816.0
2017-Apr-17 15:00N 36°52' W 122°50'815.9
2017-Apr-17 14:30N 36°44' W 122°50'1615.8
2017-Apr-17 13:30N 36°28' W 122°45'816.4
2017-Apr-17 13:00N 36°21' W 122°41'816.4
2017-Apr-17 12:30N 36°14' W 122°35'816.2
2017-Apr-17 12:00N 36°08' W 122°29'191337.6
2017-Apr-17 12:00N 36°24' W 122°42'2756.0 120 / 181014.9 0.5 13.8 9.314.0
2017-Apr-17 11:30N 36°01' W 122°23'816.2
2017-Apr-17 11:00N 35°55' W 122°17'816.2
2017-Apr-17 10:30N 35°49' W 122°11'816.4
2017-Apr-17 10:00N 35°42' W 122°05'175.4
2017-Apr-17 10:00N 35°42' W 122°06'918.0 120 / 181014.9 0.5 13.8 9.314.0
2017-Apr-17 09:30N 35°36' W 121°58'816.9
2017-Apr-17 09:00N 35°29' W 121°52'918.2
2017-Apr-17 08:30N 35°22' W 121°45'1219.6
2017-Apr-17 07:52N 35°12' W 121°36'719.5
2017-Apr-17 07:30N 35°07' W 121°31'1019.0
2017-Apr-17 07:00N 34°59' W 121°23'1019.2
2017-Apr-17 06:30N 34°51' W 121°16'918.7
2017-Apr-17 06:00N 34°44' W 121°09'918.6
2017-Apr-17 05:30N 34°37' W 121°02'1019.0
2017-Apr-17 04:59N 34°29' W 120°55'918.5
2017-Apr-17 04:30N 34°25' W 120°45'919.0
2017-Apr-17 04:00N 34°22' W 120°34'1019.2
2017-Apr-17 03:28N 34°20' W 120°22'919.0
2017-Apr-17 03:00N 34°20' W 120°12'1019.1
2017-Apr-17 02:31N 34°21' W 120°00'918.9
2017-Apr-17 02:00N 34°22' W 119°49'713.6
2017-Apr-17 01:30N 34°24' W 119°41'0 0.4
2017-Apr-17 00:57N 34°24' W 119°41'0 0.2
2017-Apr-17 00:21N 34°24' W 119°41'0 0.0
2017-Apr-16 23:57N 34°24' W 119°41'0 0.1
2017-Apr-16 23:29N 34°24' W 119°41'0 0.0
2017-Apr-16 22:59N 34°24' W 119°41'0 0.1
2017-Apr-16 22:29N 34°24' W 119°41'0 0.0
2017-Apr-16 21:59N 34°24' W 119°41'0 0.0
2017-Apr-16 21:28N 34°24' W 119°41'0 0.0
2017-Apr-16 20:58N 34°24' W 119°41'0 0.0
2017-Apr-16 20:28N 34°24' W 119°41'0 0.0
2017-Apr-16 19:55N 34°24' W 119°41'0 0.0
2017-Apr-16 19:28N 34°24' W 119°41'0 0.0
2017-Apr-16 19:01N 34°24' W 119°41'0 0.1
2017-Apr-16 18:30N 34°24' W 119°41'0 0.1
2017-Apr-16 17:57N 34°24' W 119°41'0 0.0
2017-Apr-16 17:03N 34°24' W 119°41'0 0.0
2017-Apr-16 16:41N 34°24' W 119°41'0 0.0
2017-Apr-16 16:23N 34°24' W 119°41'0 0.0
2017-Apr-16 15:56N 34°24' W 119°41'0 0.0
2017-Apr-16 15:29N 34°24' W 119°41'0 0.1
2017-Apr-16 14:50N 34°24' W 119°41'0 0.0
2017-Apr-16 13:49N 34°24' W 119°41'0 0.1
2017-Apr-16 12:55N 34°24' W 119°41'2 4.5
2017-Apr-16 12:30N 34°22' W 119°41'510.9
2017-Apr-16 12:00N 34°17' W 119°37'611.1
2017-Apr-16 11:30N 34°13' W 119°33'611.2
2017-Apr-16 11:00N 34°09' W 119°28'510.8
2017-Apr-16 10:30N 34°06' W 119°23'510.9
2017-Apr-16 10:00N 34°05' W 119°16'611.2
2017-Apr-16 09:30N 34°02' W 119°10'5 9.4
2017-Apr-16 09:00N 33°58' W 119°09'611.0
2017-Apr-16 08:30N 33°53' W 119°13'611.2
2017-Apr-16 08:00N 33°49' W 119°17'5 9.3
2017-Apr-16 07:30N 33°44' W 119°17'510.6
2017-Apr-16 07:00N 33°43' W 119°11'611.1
2017-Apr-16 06:30N 33°42' W 119°04'611.1
2017-Apr-16 06:00N 33°41' W 118°58'611.2
2017-Apr-16 05:30N 33°39' W 118°51'611.2
2017-Apr-16 05:00N 33°34' W 118°48'611.1
2017-Apr-16 04:30N 33°29' W 118°44'511.0
2017-Apr-16 04:00N 33°24' W 118°41'611.2
2017-Apr-16 03:30N 33°20' W 118°37'510.6
2017-Apr-16 03:00N 33°15' W 118°34'611.0
2017-Apr-16 02:30N 33°14' W 118°27'511.0
2017-Apr-16 02:00N 33°13' W 118°21'5 9.5
2017-Apr-16 01:30N 33°16' W 118°16'5 9.8
2017-Apr-16 01:00N 33°21' W 118°18'1 1.1
2017-Apr-16 00:28N 33°21' W 118°19'0 0.1
2017-Apr-15 23:55N 33°21' W 118°19'0 0.1
2017-Apr-15 23:28N 33°21' W 118°19'0 0.0
2017-Apr-15 22:58N 33°21' W 118°19'0 0.0
2017-Apr-15 22:30N 33°21' W 118°19'0 0.0
2017-Apr-15 22:00N 33°21' W 118°19'0 0.1
2017-Apr-15 21:30N 33°21' W 118°19'0 0.1
2017-Apr-15 21:00N 33°21' W 118°19'0 0.0
2017-Apr-15 20:30N 33°21' W 118°19'0 0.0
2017-Apr-15 19:59N 33°21' W 118°19'0 0.0
2017-Apr-15 19:29N 33°21' W 118°19'0 0.1
2017-Apr-15 18:59N 33°21' W 118°19'0 0.0
2017-Apr-15 18:29N 33°21' W 118°19'0 0.0
2017-Apr-15 17:58N 33°21' W 118°19'0 0.0
2017-Apr-15 17:28N 33°21' W 118°19'0 0.1
2017-Apr-15 16:58N 33°21' W 118°19'0 0.1
2017-Apr-15 16:25N 33°21' W 118°19'0 0.0
2017-Apr-15 15:55N 33°21' W 118°19'0 0.0
2017-Apr-15 15:30N 33°21' W 118°19'0 0.0
2017-Apr-15 15:00N 33°21' W 118°19'0 0.0
2017-Apr-15 13:57N 33°21' W 118°19'0 0.1
2017-Apr-15 13:31N 33°21' W 118°19'4 8.2
2017-Apr-15 13:01N 33°21' W 118°14'510.4
2017-Apr-15 12:31N 33°16' W 118°11'510.1
2017-Apr-15 12:01N 33°11' W 118°09'5 9.9
2017-Apr-15 11:30N 33°06' W 118°08'5 9.1
2017-Apr-15 11:00N 33°03' W 118°05'5 9.7
2017-Apr-15 10:31N 33°04' W 117°60'611.3
2017-Apr-15 10:01N 33°10' W 118°01'611.6
2017-Apr-15 09:30N 33°15' W 118°04'611.5
2017-Apr-15 09:00N 33°20' W 118°07'611.4
2017-Apr-15 08:31N 33°26' W 118°09'611.4
2017-Apr-15 08:00N 33°31' W 118°12'611.7
2017-Apr-15 07:31N 33°37' W 118°14'510.1
2017-Apr-15 07:01N 33°42' W 118°15'3 6.3
2017-Apr-15 06:30N 33°45' W 118°17'0 0.7
2017-Apr-15 06:00N 33°45' W 118°17'0 0.0
2017-Apr-15 05:30N 33°45' W 118°17'0 0.0
2017-Apr-15 05:00N 33°45' W 118°17'0 0.0
2017-Apr-15 04:30N 33°45' W 118°17'0 0.0
2017-Apr-15 03:59N 33°45' W 118°17'0 0.0
2017-Apr-15 03:29N 33°45' W 118°17'0 0.0
2017-Apr-15 02:59N 33°45' W 118°17'0 0.0
2017-Apr-15 02:29N 33°45' W 118°17'0 0.0
2017-Apr-15 01:59N 33°45' W 118°17'0 0.0
2017-Apr-15 01:28N 33°45' W 118°17'0 0.0
2017-Apr-15 00:58N 33°45' W 118°17'0 0.0
2017-Apr-15 00:28N 33°45' W 118°17'0 0.0
2017-Apr-14 23:43N 33°45' W 118°17'0 0.0
2017-Apr-14 22:42N 33°45' W 118°17'0 0.0
2017-Apr-14 22:30N 33°45' W 118°17'  

Dump ship's entire track history